Time;durP1;ratioP1;P1;durP2;ratioP2;P2;SDS_P1;SDS_P2;PMS_P1;PMS_P2;Temp;Humidity;BMP_temperature;BMP_pressure;BME280_temperature;BME280_humidity;BME280_pressure;Samples;Min_cycle;Max_cycle;Signal;HPM_P1;HPM_P2
2022/02/12 00:00:27;;;;;;;9.02;4.00;;;3.80;72.40;;;;;;5010238;28;20025;-75
2022/02/12 00:02:54;;;;;;;9.50;4.13;;;3.80;72.40;;;;;;5015695;28;20026;-75
2022/02/12 00:05:20;;;;;;;10.45;3.95;;;3.80;72.40;;;;;;5008190;28;20022;-76
2022/02/12 00:07:46;;;;;;;8.02;4.30;;;3.80;72.60;;;;;;5004180;28;20468;-75
2022/02/12 00:10:13;;;;;;;8.32;3.90;;;3.70;72.50;;;;;;5013004;28;20032;-76
2022/02/12 00:12:39;;;;;;;11.60;4.50;;;3.70;72.70;;;;;;5012089;28;20564;-76
2022/02/12 00:15:05;;;;;;;8.98;4.70;;;3.70;72.80;;;;;;5011379;28;20021;-75
2022/02/12 00:17:30;;;;;;;8.38;4.18;;;3.70;72.90;;;;;;5011617;28;20138;-75
2022/02/12 00:19:56;;;;;;;9.88;4.13;;;3.70;72.90;;;;;;5008723;28;20038;-75
2022/02/12 00:22:23;;;;;;;8.57;4.10;;;3.70;72.90;;;;;;5009846;28;20030;-75
2022/02/12 00:24:49;;;;;;;9.10;4.38;;;3.70;72.90;;;;;;5012586;28;20054;-75
2022/02/12 00:27:14;;;;;;;8.32;4.10;;;3.60;73.00;;;;;;5007737;28;20045;-76
2022/02/12 00:29:40;;;;;;;9.63;4.00;;;3.70;73.10;;;;;;5005764;28;20031;-75
2022/02/12 00:32:06;;;;;;;9.38;3.72;;;3.70;73.10;;;;;;5013467;28;20117;-76
2022/02/12 00:34:34;;;;;;;8.38;3.50;;;3.70;73.10;;;;;;4988145;28;20116;-75
2022/02/12 00:36:59;;;;;;;8.25;4.03;;;3.70;73.20;;;;;;5006286;28;20037;-75
2022/02/12 00:39:25;;;;;;;11.38;4.40;;;3.60;73.20;;;;;;5000458;28;20488;-74
2022/02/12 00:41:50;;;;;;;7.05;3.60;;;3.60;73.50;;;;;;5016390;28;20109;-74
2022/02/12 00:44:16;;;;;;;10.30;5.18;;;3.60;73.50;;;;;;5007658;28;20373;-75
2022/02/12 00:46:41;;;;;;;10.23;4.88;;;3.60;73.60;;;;;;5010822;28;20106;-75
2022/02/12 00:49:07;;;;;;;8.10;4.13;;;3.60;73.80;;;;;;5022603;28;20036;-75
2022/02/12 00:51:33;;;;;;;12.05;4.47;;;3.60;73.80;;;;;;5013118;28;20018;-74
2022/02/12 00:54:02;;;;;;;8.95;3.85;;;3.60;73.80;;;;;;5014745;28;20487;-74
2022/02/12 00:56:28;;;;;;;9.02;4.43;;;3.60;73.80;;;;;;5017689;28;20091;-74
2022/02/12 00:58:54;;;;;;;8.90;4.25;;;3.60;73.90;;;;;;5010356;28;20069;-74
2022/02/12 01:01:19;;;;;;;9.52;4.47;;;3.50;73.90;;;;;;5014219;28;20084;-75
2022/02/12 01:03:45;;;;;;;8.35;4.30;;;3.50;73.90;;;;;;5018144;28;20033;-74
2022/02/12 01:06:11;;;;;;;9.70;4.07;;;3.50;74.00;;;;;;5017107;28;20033;-74
2022/02/12 01:08:36;;;;;;;9.70;4.18;;;3.50;74.20;;;;;;5005998;28;20026;-74
2022/02/12 01:11:03;;;;;;;8.88;3.92;;;3.50;74.20;;;;;;5011345;28;20037;-74
2022/02/12 01:13:29;;;;;;;7.63;3.75;;;3.50;74.20;;;;;;5011207;28;20023;-74
2022/02/12 01:15:55;;;;;;;11.50;4.60;;;3.50;74.20;;;;;;5014222;28;20072;-74
2022/02/12 01:18:20;;;;;;;10.00;4.70;;;3.50;74.40;;;;;;5016888;28;20038;-75
2022/02/12 01:20:46;;;;;;;10.30;4.40;;;3.40;74.50;;;;;;5021151;28;20087;-74
2022/02/12 01:23:11;;;;;;;8.27;4.70;;;3.40;74.60;;;;;;5021097;28;20142;-74
2022/02/12 01:25:37;;;;;;;9.85;4.47;;;3.40;74.70;;;;;;5009775;28;20131;-75
2022/02/12 01:28:03;;;;;;;12.48;4.60;;;3.30;74.80;;;;;;5017666;28;20056;-74
2022/02/12 01:30:28;;;;;;;8.90;4.53;;;3.40;74.90;;;;;;5007494;28;20044;-75
2022/02/12 01:32:54;;;;;;;10.50;4.78;;;3.40;75.10;;;;;;5022440;28;20026;-75
2022/02/12 01:35:23;;;;;;;8.05;4.30;;;3.30;75.10;;;;;;5013668;28;20018;-75
2022/02/12 01:37:49;;;;;;;9.27;4.28;;;3.30;75.10;;;;;;5016648;28;20071;-75
2022/02/12 01:40:14;;;;;;;10.57;4.40;;;3.30;75.20;;;;;;5013460;28;20033;-75
2022/02/12 01:42:40;;;;;;;8.52;4.85;;;3.30;75.30;;;;;;5006502;28;20029;-74
2022/02/12 01:45:06;;;;;;;10.32;4.45;;;3.30;75.40;;;;;;5007547;28;20594;-74
2022/02/12 01:47:31;;;;;;;10.10;4.40;;;3.30;75.40;;;;;;5014480;28;20550;-74
2022/02/12 01:49:57;;;;;;;11.73;5.10;;;3.20;75.50;;;;;;5012066;28;20018;-74
2022/02/12 01:52:23;;;;;;;8.95;4.40;;;3.10;75.70;;;;;;5015652;28;20022;-74
2022/02/12 01:54:50;;;;;;;12.57;4.80;;;3.20;75.90;;;;;;5010491;28;20121;-74
2022/02/12 01:57:16;;;;;;;8.55;4.18;;;3.20;76.00;;;;;;5017598;28;20017;-74
2022/02/12 01:59:41;;;;;;;10.85;4.38;;;3.20;76.00;;;;;;5012289;28;20036;-74
2022/02/12 02:02:08;;;;;;;10.98;3.70;;;3.20;76.00;;;;;;5007147;28;20022;-74
2022/02/12 02:04:34;;;;;;;10.75;4.40;;;3.20;76.00;;;;;;5011236;28;20048;-73
2022/02/12 02:07:00;;;;;;;11.88;4.63;;;3.20;76.00;;;;;;5011045;28;20597;-73
2022/02/12 02:09:30;;;;;;;11.35;5.00;;;3.20;75.90;;;;;;5013639;28;20069;-75
2022/02/12 02:11:55;;;;;;;11.82;4.88;;;3.20;76.00;;;;;;5002728;28;20061;-74
2022/02/12 02:14:30;;;;;;;12.43;4.05;;;3.10;76.10;;;;;;5011283;28;20072;-74
2022/02/12 02:16:56;;;;;;;6.95;3.85;;;3.20;76.20;;;;;;5009145;28;20022;-75
2022/02/12 02:19:22;;;;;;;11.38;4.53;;;3.20;76.00;;;;;;5009408;28;20048;-74
2022/02/12 02:21:51;;;;;;;7.32;3.70;;;3.20;76.00;;;;;;5010882;28;20050;-73
2022/02/12 02:24:18;;;;;;;8.43;3.83;;;3.20;75.90;;;;;;5011929;28;20391;-74
2022/02/12 02:26:43;;;;;;;10.45;4.15;;;3.20;75.80;;;;;;5019553;28;20202;-74
2022/02/12 02:29:09;;;;;;;9.52;3.88;;;3.20;75.80;;;;;;5008034;28;20076;-74
2022/02/12 02:31:34;;;;;;;7.03;4.07;;;3.30;75.70;;;;;;5007346;28;20083;-74
2022/02/12 02:34:10;;;;;;;11.15;3.75;;;3.20;76.20;;;;;;5010245;28;20384;-74
2022/02/12 02:36:36;;;;;;;8.65;3.92;;;3.30;75.60;;;;;;5007087;28;20061;-74
2022/02/12 02:39:02;;;;;;;8.15;4.20;;;3.20;75.50;;;;;;5006925;28;20038;-74
2022/02/12 02:41:28;;;;;;;9.75;4.10;;;3.20;75.70;;;;;;5019948;28;20468;-74
2022/02/12 02:43:54;;;;;;;10.30;4.70;;;3.20;75.70;;;;;;5017080;28;20045;-74
2022/02/12 02:46:19;;;;;;;9.40;4.72;;;3.20;75.70;;;;;;5004924;28;20030;-75
2022/02/12 02:48:45;;;;;;;9.07;4.60;;;3.20;75.60;;;;;;5002070;28;20030;-75
2022/02/12 02:56:40;;;;;;;9.40;3.90;;;3.20;75.60;;;;;;5011446;28;20396;-74
2022/02/12 02:59:06;;;;;;;7.82;3.95;;;3.20;75.60;;;;;;5008726;28;20037;-75
2022/02/12 03:01:32;;;;;;;6.68;3.88;;;3.20;75.60;;;;;;5006583;28;20046;-75
2022/02/12 03:03:58;;;;;;;6.85;3.55;;;3.20;75.60;;;;;;5013757;28;20049;-75
2022/02/12 03:06:25;;;;;;;8.45;3.95;;;3.20;75.60;;;;;;5013587;28;20435;-74
2022/02/12 03:08:52;;;;;;;8.25;4.35;;;3.20;75.50;;;;;;5010160;28;20033;-75
2022/02/12 03:11:18;;;;;;;10.18;4.47;;;3.10;75.50;;;;;;5002169;28;20021;-75
2022/02/12 03:13:46;;;;;;;10.38;4.38;;;3.10;75.60;;;;;;5013022;28;20022;-74
2022/02/12 03:16:12;;;;;;;10.05;4.78;;;3.10;75.70;;;;;;5009561;28;20132;-75
2022/02/12 03:18:39;;;;;;;9.52;4.80;;;3.00;75.80;;;;;;5011684;28;20396;-75
2022/02/12 03:21:05;;;;;;;7.13;3.55;;;3.00;75.90;;;;;;5024394;28;20454;-75
2022/02/12 03:23:31;;;;;;;11.77;4.10;;;3.00;75.90;;;;;;5021469;28;20022;-75
2022/02/12 03:25:56;;;;;;;8.88;4.10;;;3.10;75.80;;;;;;5024845;28;20511;-75
2022/02/12 03:28:22;;;;;;;10.82;4.68;;;3.00;75.70;;;;;;5017935;28;20492;-73
2022/02/12 03:30:48;;;;;;;11.50;4.63;;;3.00;75.70;;;;;;5019699;28;20030;-75
2022/02/12 03:33:15;;;;;;;10.05;4.40;;;3.00;75.90;;;;;;5013072;28;20525;-75
2022/02/12 03:35:41;;;;;;;8.00;4.43;;;3.00;75.90;;;;;;5012110;28;20038;-76
2022/02/12 03:38:07;;;;;;;9.27;4.43;;;3.00;75.90;;;;;;5018875;28;20037;-76
2022/02/12 03:40:34;;;;;;;7.45;4.22;;;3.00;75.90;;;;;;5019224;28;20045;-75
2022/02/12 03:43:00;;;;;;;7.00;4.22;;;3.00;75.80;;;;;;5022475;28;20025;-75
2022/02/12 03:45:25;;;;;;;8.88;4.03;;;3.00;75.70;;;;;;5014266;28;20034;-75
2022/02/12 03:47:51;;;;;;;10.18;4.03;;;3.00;75.60;;;;;;5013695;28;20030;-75
2022/02/12 03:50:16;;;;;;;8.27;4.10;;;3.00;75.60;;;;;;5008296;28;20057;-74
2022/02/12 03:52:42;;;;;;;9.63;4.07;;;2.90;75.70;;;;;;5014831;28;20061;-75
2022/02/12 03:55:08;;;;;;;6.70;3.83;;;2.90;75.70;;;;;;5019892;28;20068;-75
2022/02/12 03:57:36;;;;;;;8.82;4.47;;;2.80;75.70;;;;;;5019079;28;20635;-76
2022/02/12 04:00:11;;;;;;;8.55;3.95;;;2.80;75.80;;;;;;5014553;28;20060;-75
2022/02/12 04:02:37;;;;;;;9.63;4.15;;;2.80;75.90;;;;;;5008356;28;20080;-76
2022/02/12 04:05:03;;;;;;;7.13;3.97;;;2.80;75.90;;;;;;5009166;28;20110;-75
2022/02/12 04:07:29;;;;;;;8.00;3.92;;;2.80;76.00;;;;;;5006639;28;20460;-76
2022/02/12 04:09:54;;;;;;;9.30;4.35;;;2.80;76.10;;;;;;5013398;28;20018;-74
2022/02/12 04:12:20;;;;;;;10.60;4.18;;;2.70;76.20;;;;;;5019006;28;20133;-75
2022/02/12 04:14:45;;;;;;;13.07;4.70;;;2.70;76.30;;;;;;5013942;28;20042;-76
2022/02/12 04:17:11;;;;;;;9.38;3.60;;;2.70;76.20;;;;;;5013148;28;20116;-75
2022/02/12 04:19:36;;;;;;;8.00;3.90;;;2.70;76.10;;;;;;5007598;28;20044;-76
2022/02/12 04:22:02;;;;;;;8.05;3.92;;;2.80;76.10;;;;;;5012318;28;20440;-76
2022/02/12 04:24:28;;;;;;;8.73;3.97;;;2.80;76.10;;;;;;5003179;28;20480;-75
2022/02/12 04:26:54;;;;;;;9.55;4.10;;;2.70;76.00;;;;;;5015842;28;20076;-75
2022/02/12 04:29:20;;;;;;;10.63;4.25;;;2.70;76.00;;;;;;5016464;28;20384;-75
2022/02/12 04:31:45;;;;;;;7.72;3.72;;;2.70;76.20;;;;;;5012292;28;20113;-75
2022/02/12 04:34:11;;;;;;;8.32;4.07;;;2.70;76.20;;;;;;5013894;28;20436;-75
2022/02/12 04:36:37;;;;;;;7.95;4.18;;;2.70;76.20;;;;;;5007530;28;20025;-74
2022/02/12 04:39:02;;;;;;;8.27;3.85;;;2.70;76.20;;;;;;5017409;28;20041;-74
2022/02/12 04:41:28;;;;;;;9.45;4.00;;;2.70;76.20;;;;;;5010702;28;20030;-77
2022/02/12 04:43:54;;;;;;;8.25;3.80;;;2.70;76.20;;;;;;5006742;28;20026;-75
2022/02/12 04:46:20;;;;;;;9.52;4.10;;;2.60;76.10;;;;;;5017477;28;20152;-75
2022/02/12 04:48:48;;;;;;;7.30;4.00;;;2.70;76.20;;;;;;5016924;28;20491;-74
2022/02/12 04:51:18;;;;;;;9.00;4.20;;;2.70;76.20;;;;;;5011375;28;20026;-75
2022/02/12 04:53:44;;;;;;;7.45;4.20;;;2.70;76.20;;;;;;5021598;28;20492;-74
2022/02/12 04:56:10;;;;;;;11.73;4.53;;;2.60;76.10;;;;;;5008204;28;20025;-75
2022/02/12 04:58:35;;;;;;;9.32;3.90;;;2.60;76.20;;;;;;5018653;28;20053;-78
2022/02/12 05:01:01;;;;;;;7.80;3.60;;;2.60;76.10;;;;;;5009877;28;20377;-75
2022/02/12 05:03:26;;;;;;;10.82;4.32;;;2.60;76.10;;;;;;5019739;28;20030;-75
2022/02/12 05:05:52;;;;;;;10.27;5.05;;;2.60;76.10;;;;;;5019532;28;20123;-74
2022/02/12 05:08:17;;;;;;;12.00;4.78;;;2.50;76.20;;;;;;5017472;28;20097;-75
2022/02/12 05:10:43;;;;;;;11.05;4.80;;;2.50;76.30;;;;;;5013287;28;20040;-74
2022/02/12 05:13:08;;;;;;;10.90;4.68;;;2.40;76.30;;;;;;5020300;28;20496;-74
2022/02/12 05:15:34;;;;;;;7.00;4.07;;;2.40;76.30;;;;;;5013197;28;20034;-76
2022/02/12 05:17:59;;;;;;;8.07;3.95;;;2.50;76.40;;;;;;5016063;28;20022;-74
2022/02/12 05:20:25;;;;;;;10.27;4.07;;;2.40;76.30;;;;;;5016497;28;20044;-74
2022/02/12 05:22:51;;;;;;;9.48;5.05;;;2.50;77.00;;;;;;5007384;28;20695;-75
2022/02/12 05:25:16;;;;;;;9.82;4.55;;;2.50;76.30;;;;;;5012050;28;20034;-75
2022/02/12 05:27:42;;;;;;;9.25;4.60;;;2.40;76.40;;;;;;5008684;28;20109;-75
2022/02/12 05:30:08;;;;;;;8.75;4.38;;;2.40;76.40;;;;;;5019051;28;20060;-74
2022/02/12 05:32:33;;;;;;;14.57;4.22;;;2.40;76.30;;;;;;5021630;28;20029;-74
2022/02/12 05:34:59;;;;;;;12.85;4.85;;;2.40;76.30;;;;;;5018043;28;20068;-73
2022/02/12 05:37:25;;;;;;;12.05;4.85;;;2.40;76.40;;;;;;5014288;28;20080;-75
2022/02/12 05:39:50;;;;;;;8.50;4.50;;;2.40;76.50;;;;;;5008649;28;20508;-75
2022/02/12 05:42:16;;;;;;;9.45;4.32;;;2.40;76.50;;;;;;5017298;28;20024;-75
2022/02/12 05:44:42;;;;;;;11.32;5.50;;;2.30;76.50;;;;;;5008969;28;20038;-74
2022/02/12 05:47:07;;;;;;;9.38;5.30;;;2.30;76.60;;;;;;5017402;28;20081;-75
2022/02/12 05:49:33;;;;;;;12.75;4.70;;;2.30;76.70;;;;;;5015307;28;20034;-75
2022/02/12 05:51:58;;;;;;;11.25;4.82;;;2.30;76.80;;;;;;5020623;28;20074;-75
2022/02/12 05:54:24;;;;;;;8.00;4.78;;;2.30;76.70;;;;;;5015499;28;20030;-75
2022/02/12 05:56:49;;;;;;;10.93;4.53;;;2.30;76.70;;;;;;5019346;28;20502;-76
2022/02/12 05:59:18;;;;;;;8.30;3.60;;;2.30;76.60;;;;;;5012095;28;20042;-76
2022/02/12 06:01:44;;;;;;;8.38;4.47;;;2.30;76.60;;;;;;5003770;28;20027;-76
2022/02/12 06:04:09;;;;;;;11.23;4.72;;;2.20;76.60;;;;;;5020689;28;20022;-76
2022/02/12 06:06:35;;;;;;;12.13;5.38;;;2.30;76.70;;;;;;4999261;28;20030;-75
2022/02/12 06:09:01;;;;;;;9.82;4.93;;;2.20;76.70;;;;;;5021344;28;20365;-75
2022/02/12 06:11:26;;;;;;;8.85;4.28;;;2.20;76.80;;;;;;5015769;28;20029;-75
2022/02/12 06:13:52;;;;;;;8.05;3.80;;;2.20;76.90;;;;;;5018794;28;20038;-75
2022/02/12 06:16:21;;;;;;;11.38;5.18;;;2.20;76.80;;;;;;5016298;28;20022;-75
2022/02/12 06:18:47;;;;;;;8.05;4.35;;;2.20;76.80;;;;;;5015051;28;20641;-75
2022/02/12 06:21:14;;;;;;;11.85;5.75;;;2.20;76.80;;;;;;5016778;28;20014;-75
2022/02/12 06:23:39;;;;;;;12.95;5.43;;;2.10;76.90;;;;;;5015351;28;20030;-74
2022/02/12 06:26:06;;;;;;;12.30;5.32;;;2.10;77.20;;;;;;5017040;28;20364;-74
2022/02/12 06:28:32;;;;;;;11.40;4.53;;;2.00;77.20;;;;;;5014393;28;20429;-75
2022/02/12 06:30:58;;;;;;;9.75;4.50;;;2.10;77.30;;;;;;5016854;28;20025;-75
2022/02/12 06:33:24;;;;;;;9.00;4.45;;;2.00;77.20;;;;;;5016051;28;20022;-75
2022/02/12 06:35:49;;;;;;;12.07;4.50;;;2.10;77.20;;;;;;5017444;28;20511;-74
2022/02/12 06:38:15;;;;;;;7.72;4.40;;;2.10;77.10;;;;;;5017406;28;20554;-74
2022/02/12 06:40:40;;;;;;;8.52;4.22;;;2.10;77.10;;;;;;5018967;28;20029;-76
2022/02/12 06:43:06;;;;;;;11.48;4.80;;;2.10;77.10;;;;;;5017232;28;20026;-74
2022/02/12 06:45:34;;;;;;;11.65;4.35;;;2.10;77.10;;;;;;5016245;28;20388;-75
2022/02/12 06:47:59;;;;;;;6.28;3.63;;;2.10;77.00;;;;;;5014883;28;20033;-74
2022/02/12 06:50:25;;;;;;;8.40;4.00;;;2.10;77.10;;;;;;5013770;28;20026;-74
2022/02/12 06:52:50;;;;;;;9.98;5.05;;;2.00;77.10;;;;;;5018971;28;20105;-74
2022/02/12 06:55:16;;;;;;;8.25;4.38;;;2.00;77.30;;;;;;5018780;28;20029;-74
2022/02/12 06:57:41;;;;;;;12.57;5.20;;;2.00;77.40;;;;;;5015563;28;20026;-74
2022/02/12 07:00:08;;;;;;;9.65;5.20;;;2.00;77.40;;;;;;5014476;28;20516;-74
2022/02/12 07:02:33;;;;;;;7.70;4.40;;;2.00;77.30;;;;;;5019256;28;20523;-74
2022/02/12 07:05:00;;;;;;;10.68;4.90;;;2.00;77.30;;;;;;5020687;28;20156;-74
2022/02/12 07:07:26;;;;;;;10.63;4.88;;;2.10;77.40;;;;;;5016026;28;20107;-75
2022/02/12 07:09:51;;;;;;;8.73;4.95;;;2.00;77.30;;;;;;5013279;28;20057;-75
2022/02/12 07:12:17;;;;;;;8.65;4.35;;;2.00;77.40;;;;;;5013609;28;20045;-76
2022/02/12 07:14:43;;;;;;;11.52;5.05;;;2.00;77.40;;;;;;5005978;28;20025;-76
2022/02/12 07:17:08;;;;;;;12.18;5.68;;;2.00;77.40;;;;;;5005837;28;20117;-76
2022/02/12 07:19:36;;;;;;;8.90;4.68;;;2.00;77.40;;;;;;5003653;28;20093;-75
2022/02/12 07:22:02;;;;;;;6.53;4.43;;;2.00;77.40;;;;;;5008241;28;20026;-76
2022/02/12 07:24:27;;;;;;;9.38;4.95;;;2.10;77.40;;;;;;5007274;28;20080;-76
2022/02/12 07:26:53;;;;;;;9.35;5.40;;;2.10;77.20;;;;;;5007076;28;20468;-75
2022/02/12 07:29:18;;;;;;;9.02;5.40;;;2.10;77.10;;;;;;5007783;28;20030;-75
2022/02/12 07:31:44;;;;;;;11.43;5.75;;;2.10;77.10;;;;;;5000182;28;20076;-75
2022/02/12 07:34:14;;;;;;;13.57;5.55;;;2.10;77.10;;;;;;5008545;28;20504;-76
2022/02/12 07:36:39;;;;;;;9.63;4.55;;;2.10;77.20;;;;;;5008766;28;20014;-75
2022/02/12 07:39:05;;;;;;;8.68;5.13;;;2.10;77.20;;;;;;5008516;28;20545;-76
2022/02/12 07:41:34;;;;;;;11.00;5.63;;;2.10;77.20;;;;;;5009762;28;20029;-74
2022/02/12 07:44:00;;;;;;;10.52;4.90;;;2.10;77.80;;;;;;5011011;28;20028;-73
2022/02/12 07:46:25;;;;;;;9.35;4.55;;;2.20;77.20;;;;;;5009432;28;20022;-75
2022/02/12 07:48:51;;;;;;;10.75;4.75;;;2.10;77.10;;;;;;5007092;28;20038;-75
2022/02/12 07:51:17;;;;;;;8.90;4.32;;;2.20;77.10;;;;;;5010245;28;20061;-75
2022/02/12 07:53:42;;;;;;;10.27;4.72;;;2.20;77.00;;;;;;5008558;28;20042;-74
2022/02/12 07:56:08;;;;;;;12.38;4.68;;;2.20;76.90;;;;;;5010347;28;20399;-80
2022/02/12 07:58:33;;;;;;;8.32;4.68;;;2.30;76.90;;;;;;5008899;28;20056;-74
2022/02/12 08:00:59;;;;;;;9.73;4.57;;;2.30;76.80;;;;;;5008662;28;20034;-74
2022/02/12 08:03:24;;;;;;;8.10;3.85;;;2.30;76.70;;;;;;5005798;28;20022;-74
2022/02/12 08:05:50;;;;;;;8.85;4.68;;;2.40;76.70;;;;;;5008452;28;20048;-75
2022/02/12 08:08:15;;;;;;;9.10;4.72;;;2.30;76.60;;;;;;5005454;28;20104;-74
2022/02/12 08:13:26;;;;;;;10.25;5.97;;;2.30;76.70;;;;;;5005061;28;20029;-75
2022/02/12 08:15:52;;;;;;;8.45;4.53;;;2.30;76.80;;;;;;5008903;28;20033;-73
2022/02/12 08:18:17;;;;;;;6.88;4.05;;;2.30;76.80;;;;;;5008059;28;20156;-73
2022/02/12 08:20:43;;;;;;;10.55;5.10;;;2.40;76.80;;;;;;5009765;28;20044;-73
2022/02/12 08:23:09;;;;;;;9.05;4.45;;;2.40;76.70;;;;;;5010701;28;20025;-73
2022/02/12 08:25:35;;;;;;;9.07;4.68;;;2.50;76.70;;;;;;5003396;28;20026;-72
2022/02/12 08:28:00;;;;;;;10.43;5.38;;;2.50;76.60;;;;;;5007158;28;20079;-73
2022/02/12 08:30:26;;;;;;;9.60;4.78;;;2.50;76.60;;;;;;5007424;28;20028;-80
2022/02/12 08:32:52;;;;;;;10.85;5.20;;;2.60;76.60;;;;;;5007914;28;20101;-79
2022/02/12 08:35:17;;;;;;;9.50;5.18;;;2.70;76.50;;;;;;5008740;28;20045;-78
2022/02/12 08:37:44;;;;;;;13.32;6.03;;;2.70;76.40;;;;;;5008737;28;20025;-74
2022/02/12 08:40:13;;;;;;;10.02;4.70;;;2.70;76.30;;;;;;5005678;28;20044;-74
2022/02/12 08:42:41;;;;;;;7.38;3.88;;;2.70;76.30;;;;;;5010122;28;20392;-73
2022/02/12 08:45:09;;;;;;;15.52;6.07;;;2.80;76.30;;;;;;5004015;28;20476;-73
2022/02/12 08:47:35;;;;;;;8.65;5.13;;;2.70;76.20;;;;;;5010157;28;20022;-73
2022/02/12 08:50:00;;;;;;;9.18;4.60;;;2.70;76.30;;;;;;5006639;28;20456;-74
2022/02/12 08:52:28;;;;;;;9.75;4.97;;;2.70;76.30;;;;;;5007806;28;20053;-75
2022/02/12 08:54:54;;;;;;;9.23;5.05;;;2.70;76.30;;;;;;5003485;28;20395;-74
2022/02/12 08:57:19;;;;;;;9.05;4.80;;;2.80;76.20;;;;;;5006239;28;20021;-74
2022/02/12 08:59:45;;;;;;;13.00;5.70;;;2.80;76.10;;;;;;5009052;28;20043;-75
2022/02/12 09:02:12;;;;;;;11.05;5.53;;;2.70;76.10;;;;;;5010988;28;20046;-75
2022/02/12 09:04:39;;;;;;;9.80;4.78;;;2.70;76.40;;;;;;5005263;28;20121;-75
2022/02/12 09:07:05;;;;;;;9.48;4.93;;;2.80;76.40;;;;;;5008655;28;20076;-75
2022/02/12 09:09:30;;;;;;;11.27;5.50;;;2.80;76.40;;;;;;5007790;28;20034;-74
2022/02/12 09:11:57;;;;;;;12.35;5.57;;;2.80;76.30;;;;;;5008832;28;20362;-75
2022/02/12 09:14:23;;;;;;;10.00;4.93;;;2.80;76.50;;;;;;5008906;28;20022;-74
2022/02/12 09:16:49;;;;;;;10.15;4.78;;;2.90;76.60;;;;;;5005583;28;20030;-74
2022/02/12 09:19:15;;;;;;;10.52;5.40;;;2.90;76.60;;;;;;5009935;28;20068;-74
2022/02/12 09:21:40;;;;;;;12.52;5.60;;;2.90;76.50;;;;;;5003637;28;20424;-75
2022/02/12 09:24:06;;;;;;;11.02;5.22;;;3.00;76.50;;;;;;5006338;28;20034;-74
2022/02/12 09:26:32;;;;;;;9.77;4.32;;;3.00;76.40;;;;;;5003382;28;20027;-74
2022/02/12 09:29:04;;;;;;;11.60;5.30;;;3.10;77.00;;;;;;4999523;28;20018;-74
2022/02/12 09:31:30;;;;;;;9.98;5.07;;;3.10;76.20;;;;;;5005344;28;20021;-74
2022/02/12 09:33:56;;;;;;;8.82;4.53;;;3.20;76.00;;;;;;5005339;28;20037;-74
2022/02/12 09:36:22;;;;;;;11.65;5.00;;;3.30;76.00;;;;;;5008262;28;20384;-74
2022/02/12 09:38:48;;;;;;;11.85;5.45;;;3.40;75.70;;;;;;5003466;28;20022;-73
2022/02/12 09:41:14;;;;;;;11.98;5.18;;;3.40;75.50;;;;;;5001283;28;20033;-74
2022/02/12 09:43:41;;;;;;;8.82;4.68;;;3.50;75.50;;;;;;5001020;28;20065;-74
2022/02/12 09:46:15;;;;;;;14.63;5.32;;;3.50;75.30;;;;;;5007615;28;20030;-74
2022/02/12 09:48:44;;;;;;;9.25;3.97;;;3.60;74.90;;;;;;5005895;28;20542;-75
2022/02/12 09:51:12;;;;;;;9.32;4.50;;;3.70;74.60;;;;;;5006428;28;20033;-74
2022/02/12 09:53:37;;;;;;;10.98;5.03;;;3.80;75.00;;;;;;5006130;28;20030;-75
2022/02/12 09:56:03;;;;;;;7.88;4.30;;;3.90;74.10;;;;;;5003165;28;20045;-74
2022/02/12 09:58:28;;;;;;;6.13;3.95;;;4.10;73.90;;;;;;5004425;28;20025;-74
2022/02/12 10:00:54;;;;;;;5.78;3.75;;;4.20;73.70;;;;;;5005952;28;20022;-74
2022/02/12 10:03:20;;;;;;;8.93;3.90;;;4.20;73.30;;;;;;5007773;28;20018;-75
2022/02/12 10:05:53;;;;;;;9.55;4.10;;;4.40;73.20;;;;;;5005459;28;20026;-74
2022/02/12 10:08:20;;;;;;;11.63;5.03;;;4.50;72.70;;;;;;5008879;28;20026;-74
2022/02/12 10:10:48;;;;;;;8.27;4.00;;;4.50;71.40;;;;;;5006764;28;20033;-74
2022/02/12 10:13:19;;;;;;;11.25;3.90;;;4.50;71.10;;;;;;5000447;28;20038;-76
2022/02/12 10:16:04;;;;;;;10.18;4.10;;;4.60;70.90;;;;;;5001395;28;20018;-76
2022/02/12 10:18:32;;;;;;;12.07;4.22;;;4.70;70.00;;;;;;5026072;28;20087;-76
2022/02/12 10:20:59;;;;;;;10.80;4.22;;;4.80;69.70;;;;;;5009187;28;20064;-76
2022/02/12 10:23:30;;;;;;;8.57;3.25;;;4.90;69.30;;;;;;5005616;28;20100;-76
2022/02/12 10:26:01;;;;;;;6.65;3.63;;;4.90;68.90;;;;;;4998538;28;20109;-77
2022/02/12 10:28:28;;;;;;;13.43;3.97;;;5.00;67.90;;;;;;5011766;28;20072;-75
2022/02/12 10:30:56;;;;;;;8.18;3.45;;;5.10;67.70;;;;;;5014047;28;20373;-75
2022/02/12 10:33:23;;;;;;;9.90;3.35;;;5.20;67.20;;;;;;5011570;28;20029;-74
2022/02/12 10:36:01;;;;;;;8.75;3.25;;;5.20;66.70;;;;;;5008206;28;20041;-75
2022/02/12 10:38:29;;;;;;;7.93;3.10;;;5.30;66.70;;;;;;5002664;28;20476;-75
2022/02/12 10:41:14;;;;;;;9.00;3.60;;;5.30;66.50;;;;;;5007052;28;20048;-74
2022/02/12 10:43:41;;;;;;;8.20;3.42;;;5.30;65.60;;;;;;5007677;28;20018;-74
2022/02/12 10:46:08;;;;;;;9.35;4.03;;;5.30;64.80;;;;;;5022450;28;20491;-76
2022/02/12 10:48:38;;;;;;;8.27;3.47;;;5.40;64.30;;;;;;5013773;28;20026;-75
2022/02/12 10:51:11;;;;;;;8.63;3.90;;;5.40;64.50;;;;;;5013142;28;20030;-75
2022/02/12 10:54:02;;;;;;;7.57;3.10;;;5.50;63.40;;;;;;5007446;28;20427;-75
2022/02/12 10:56:49;;;;;;;9.20;3.45;;;5.50;63.50;;;;;;5003705;28;20029;-74
2022/02/12 10:59:20;;;;;;;10.40;4.00;;;5.60;62.60;;;;;;5005555;28;20033;-74
2022/02/12 11:01:46;;;;;;;13.30;3.88;;;5.60;62.60;;;;;;5000339;28;20041;-75
2022/02/12 11:04:15;;;;;;;11.30;4.03;;;5.70;62.40;;;;;;5002741;28;20026;-74
2022/02/12 11:06:43;;;;;;;8.93;3.00;;;5.70;61.70;;;;;;5000399;28;20482;-75
2022/02/12 11:09:09;;;;;;;6.30;3.28;;;5.70;62.10;;;;;;5005333;28;20037;-74
2022/02/12 11:11:34;;;;;;;9.10;3.47;;;5.80;62.20;;;;;;5009650;28;20018;-75
2022/02/12 11:14:00;;;;;;;7.50;3.55;;;5.80;61.70;;;;;;5012053;28;20036;-74
2022/02/12 11:16:27;;;;;;;9.77;3.90;;;5.90;62.10;;;;;;5012066;28;20026;-75
2022/02/12 11:18:54;;;;;;;6.65;3.10;;;5.90;61.40;;;;;;5010591;28;20108;-74
2022/02/12 11:21:20;;;;;;;10.00;3.47;;;6.00;61.40;;;;;;5010111;28;20029;-75
2022/02/12 11:24:08;;;;;;;11.25;3.60;;;6.10;61.20;;;;;;5007980;28;20072;-75
2022/02/12 11:26:45;;;;;;;8.48;3.45;;;6.10;61.40;;;;;;5013206;28;20034;-75
2022/02/12 11:29:30;;;;;;;8.93;3.40;;;6.20;60.90;;;;;;5008392;28;20034;-75
2022/02/12 11:32:10;;;;;;;9.13;3.35;;;6.30;61.10;;;;;;5009215;28;20025;-77
2022/02/12 11:34:35;;;;;;;6.88;3.55;;;6.40;60.80;;;;;;5008465;28;20029;-76
2022/02/12 11:37:34;;;;;;;8.65;3.30;;;6.40;60.90;;;;;;5004863;28;20061;-75
2022/02/12 11:40:12;;;;;;;8.38;3.25;;;6.50;60.20;;;;;;4988917;28;20046;-75
2022/02/12 11:42:47;;;;;;;9.52;3.03;;;6.60;59.60;;;;;;5005628;28;20413;-75
2022/02/12 11:45:26;;;;;;;8.15;3.35;;;6.60;59.50;;;;;;5006014;28;20065;-75
2022/02/12 11:48:17;;;;;;;10.55;3.42;;;6.70;59.60;;;;;;5005550;28;20026;-75
2022/02/12 11:50:47;;;;;;;8.38;3.15;;;6.80;59.40;;;;;;5005377;28;20684;-74
2022/02/12 11:53:38;;;;;;;7.78;3.00;;;6.90;59.50;;;;;;5006393;28;20108;-75
2022/02/12 11:56:27;;;;;;;9.13;3.15;;;7.00;59.30;;;;;;5009249;28;20029;-75
2022/02/12 11:58:55;;;;;;;6.55;2.60;;;7.10;59.20;;;;;;5000351;28;20054;-75
2022/02/12 12:01:35;;;;;;;8.60;2.70;;;7.20;58.90;;;;;;5010281;28;20095;-74
2022/02/12 12:04:00;;;;;;;6.43;2.67;;;7.30;58.70;;;;;;5005705;28;20476;-76
2022/02/12 12:06:26;;;;;;;10.00;3.03;;;7.30;58.10;;;;;;5004154;28;20033;-76
2022/02/12 12:09:08;;;;;;;8.32;2.97;;;7.80;57.30;;;;;;5008567;28;20034;-75
2022/02/12 12:11:36;;;;;;;7.45;3.45;;;9.80;54.20;;;;;;5005409;28;20034;-75
2022/02/12 12:14:28;;;;;;;11.13;3.70;;;10.90;49.30;;;;;;5015381;28;20111;-75
2022/02/12 12:16:55;;;;;;;7.68;3.22;;;11.50;46.60;;;;;;5013451;28;20440;-73
2022/02/12 12:19:32;;;;;;;6.90;2.42;;;11.80;46.30;;;;;;5008825;28;20095;-74
2022/02/12 12:22:00;;;;;;;9.25;3.20;;;12.40;45.80;;;;;;5017444;28;20041;-73
2022/02/12 12:24:26;;;;;;;8.75;3.25;;;12.60;45.50;;;;;;5011574;28;20141;-73
2022/02/12 12:26:52;;;;;;;7.78;3.35;;;12.40;44.10;;;;;;5017003;28;20659;-74
2022/02/12 12:32:10;;;;;;;8.68;3.30;;;10.00;47.30;;;;;;5012524;28;20084;-73
2022/02/12 12:34:48;;;;;;;9.07;2.80;;;9.30;49.40;;;;;;5011169;28;20037;-73
2022/02/12 12:37:13;;;;;;;13.40;3.75;;;8.90;51.80;;;;;;5009310;28;20017;-74
2022/02/12 12:39:39;;;;;;;9.13;3.25;;;8.80;51.70;;;;;;5009147;28;20037;-73
2022/02/12 12:42:14;;;;;;;6.55;3.10;;;8.80;52.20;;;;;;5010984;28;20038;-73
2022/02/12 12:44:41;;;;;;;8.02;2.60;;;8.80;52.90;;;;;;5010773;28;20092;-73
2022/02/12 12:47:07;;;;;;;8.63;3.22;;;9.00;53.30;;;;;;5014863;28;20017;-73
2022/02/12 12:49:39;;;;;;;8.02;2.90;;;9.00;51.10;;;;;;5012924;28;20476;-73
2022/02/12 12:52:10;;;;;;;7.82;3.10;;;9.00;50.70;;;;;;5008162;28;20026;-73
2022/02/12 12:54:38;;;;;;;7.03;2.60;;;9.00;49.80;;;;;;5004987;28;20033;-73
2022/02/12 12:57:04;;;;;;;10.45;3.67;;;9.00;50.70;;;;;;5011807;28;20022;-73
2022/02/12 12:59:30;;;;;;;8.02;3.05;;;9.10;50.20;;;;;;5010418;28;20104;-74
2022/02/12 13:02:01;;;;;;;7.50;2.83;;;9.10;50.30;;;;;;5012301;28;20416;-73
2022/02/12 13:04:28;;;;;;;9.82;2.47;;;9.10;49.40;;;;;;5010274;28;20033;-74